Alread, Arkansas
Current Conditions -  °F | °C
As of 1:15 PM on Sunday 21 Dec 2014 (Local Time) from KCCA Reporting Station
Overcast Overcast  
Wind Chill: 50°   Ceiling: 4900
Heat Index: 50°   Visibility: 7mi
Dew Point: 37°   Wind: 5mph
Humidity: 62%   Direction: 160°SSE
Pressure: 30.06"   Gusts: NA
Location:  35.6269°N, 92.5508°W
Report Text: KCCA 211915Z AUTO 16004KT 7SM FEW034 OVC049 10/03 A3006 RMK AO2
Loading
Personal Weather Stations






























Interactive Weather Map New forecast layout! Learn more

10-Day Weather Forecast

Advertisements
Track Severe Weather on mobile